Time;durP1;ratioP1;P1;durP2;ratioP2;P2;SDS_P1;SDS_P2;PMS_P1;PMS_P2;Temp;Humidity;BMP_temperature;BMP_pressure;BME280_temperature;BME280_humidity;BME280_pressure;Samples;Min_cycle;Max_cycle;Signal;HPM_P1;HPM_P2
2022/08/10 00:01:33;;;;;;;5.88;3.80;;;;;;;;;;5041029;28;20029;-71
2022/08/10 00:03:59;;;;;;;4.97;3.90;;;;;;;;;;5039301;28;20530;-72
2022/08/10 00:06:25;;;;;;;6.32;4.10;;;;;;;;;;5038193;28;20045;-72
2022/08/10 00:08:51;;;;;;;5.93;4.15;;;;;;;;;;5042346;28;20049;-71
2022/08/10 00:11:18;;;;;;;6.72;4.13;;;;;;;;;;5049771;28;20487;-71
2022/08/10 00:13:44;;;;;;;10.95;4.75;;;;;;;;;;5049573;28;20033;-71
2022/08/10 00:16:10;;;;;;;6.13;4.03;;;;;;;;;;5026058;28;20040;-74
2022/08/10 00:18:36;;;;;;;5.55;4.15;;;;;;;;;;5029035;28;20064;-72
2022/08/10 00:21:04;;;;;;;4.68;3.80;;;;;;;;;;5034861;28;20188;-72
2022/08/10 00:23:30;;;;;;;9.90;4.28;;;;;;;;;;5041338;28;20040;-73
2022/08/10 00:25:56;;;;;;;4.70;4.00;;;;;;;;;;5056207;28;20052;-71
2022/08/10 00:28:22;;;;;;;7.35;4.40;;;;;;;;;;5032985;28;20504;-72
2022/08/10 00:30:48;;;;;;;5.28;3.78;;;;;;;;;;5050226;28;20115;-71
2022/08/10 00:33:15;;;;;;;4.50;3.60;;;;;;;;;;5049137;28;20112;-71
2022/08/10 00:35:41;;;;;;;7.15;4.20;;;;;;;;;;5047984;28;20105;-71
2022/08/10 00:38:07;;;;;;;6.43;4.10;;;;;;;;;;5053122;28;20045;-72
2022/08/10 00:40:33;;;;;;;4.18;3.72;;;;;;;;;;5050697;28;20458;-71
2022/08/10 00:43:00;;;;;;;7.18;3.90;;;;;;;;;;5046491;28;20037;-71
2022/08/10 00:45:26;;;;;;;5.20;4.03;;;;;;;;;;5024612;28;20089;-71
2022/08/10 00:47:52;;;;;;;8.10;4.53;;;;;;;;;;5053367;28;20120;-71
2022/08/10 00:50:19;;;;;;;7.07;4.63;;;;;;;;;;5043932;28;20026;-70
2022/08/10 00:52:45;;;;;;;7.53;4.35;;;;;;;;;;5038372;28;20056;-70
2022/08/10 00:55:11;;;;;;;9.38;4.55;;;;;;;;;;5036823;28;20109;-71
2022/08/10 00:57:38;;;;;;;7.35;5.05;;;;;;;;;;5042245;28;20034;-71
2022/08/10 01:00:10;;;;;;;5.63;4.18;;;;;;;;;;5064106;28;20526;-73
2022/08/10 01:02:36;;;;;;;;;;;;;;;;;;5050106;28;20044;-71
2022/08/10 01:05:04;;;;;;;7.40;4.15;;;;;;;;;;5047896;28;19912;-72
2022/08/10 01:07:42;;;;;;;5.00;4.35;;;;;;;;;;5051737;28;20052;-72
2022/08/10 01:10:08;;;;;;;6.05;4.50;;;;;;;;;;5050856;28;20025;-71
2022/08/10 01:12:43;;;;;;;7.30;4.72;;;;;;;;;;5046010;28;20048;-71
2022/08/10 01:15:30;;;;;;;8.10;4.88;;;;;;;;;;5048579;28;20025;-71
2022/08/10 01:18:12;;;;;;;7.85;5.20;;;;;;;;;;5031209;28;20096;-70
2022/08/10 01:20:46;;;;;;;7.25;4.82;;;;;;;;;;5032183;28;20056;-70
2022/08/10 01:23:32;;;;;;;6.78;4.85;;;;;;;;;;5047494;28;20052;-71
2022/08/10 01:26:07;;;;;;;8.30;5.07;;;;;;;;;;5028483;28;20117;-71
2022/08/10 01:28:41;;;;;;;7.28;5.25;;;;;;;;;;5051267;28;20443;-71
2022/08/10 01:31:09;;;;;;;6.07;5.47;;;;;;;;;;5045482;28;20040;-73
2022/08/10 01:33:36;;;;;;;9.38;5.65;;;;;;;;;;5050128;28;20029;-71
2022/08/10 01:36:12;;;;;;;6.47;5.80;;;;;;;;;;5039903;28;20150;-71
2022/08/10 01:38:47;;;;;;;7.55;5.93;;;;;;;;;;5035629;28;20029;-71
2022/08/10 01:41:22;;;;;;;7.45;5.35;;;;;;;;;;5040886;28;20029;-71
2022/08/10 01:44:07;;;;;;;6.57;5.68;;;;;;;;;;5036359;28;20033;-72
2022/08/10 01:46:34;;;;;;;8.50;6.20;;;;;;;;;;5047028;28;20800;-71
2022/08/10 01:49:01;;;;;;;8.50;5.82;;;;;;;;;;5044599;28;20041;-71
2022/08/10 01:51:32;;;;;;;6.97;5.88;;;;;;;;;;5048206;28;20017;-71
2022/08/10 01:54:00;;;;;;;6.53;5.70;;;;;;;;;;5031982;28;20143;-71
2022/08/10 01:56:31;;;;;;;6.72;5.90;;;;;;;;;;5036300;28;20029;-71
2022/08/10 01:58:59;;;;;;;8.02;6.05;;;;;;;;;;5050378;28;20029;-74
2022/08/10 02:01:29;;;;;;;6.78;5.78;;;;;;;;;;5051838;28;20040;-71
2022/08/10 02:03:59;;;;;;;11.00;5.82;;;;;;;;;;5048056;28;20539;-71
2022/08/10 02:06:27;;;;;;;7.82;6.03;;;;;;;;;;5027957;28;20060;-71
2022/08/10 02:08:54;;;;;;;8.57;6.20;;;;;;;;;;5031426;28;20583;-71
2022/08/10 02:11:21;;;;;;;6.03;5.43;;;;;;;;;;5039956;28;20456;-73
2022/08/10 02:13:47;;;;;;;9.27;6.38;;;;;;;;;;5033344;28;20040;-71
2022/08/10 02:16:13;;;;;;;8.70;7.10;;;;;;;;;;5047010;28;20028;-72
2022/08/10 02:18:41;;;;;;;8.25;6.50;;;;;;;;;;5036557;28;20136;-71
2022/08/10 02:21:07;;;;;;;11.20;7.65;;;;;;;;;;4999359;28;20033;-72
2022/08/10 02:23:35;;;;;;;9.18;7.30;;;;;;;;;;5027709;28;20048;-71
2022/08/10 02:26:02;;;;;;;7.80;6.88;;;;;;;;;;5062793;28;20059;-71
2022/08/10 02:28:30;;;;;;;11.80;7.38;;;;;;;;;;5037397;28;20040;-71
2022/08/10 02:30:57;;;;;;;10.02;7.47;;;;;;;;;;5033528;28;20029;-71
2022/08/10 02:33:25;;;;;;;10.13;7.32;;;;;;;;;;5048310;28;20029;-74
2022/08/10 02:35:53;;;;;;;8.02;7.00;;;;;;;;;;5041144;28;20056;-73
2022/08/10 02:38:21;;;;;;;10.60;7.50;;;;;;;;;;5036724;28;20361;-71
2022/08/10 02:40:48;;;;;;;11.00;7.05;;;;;;;;;;5050219;28;20040;-71
2022/08/10 02:43:20;;;;;;;10.05;7.00;;;;;;;;;;5040186;28;20069;-71
2022/08/10 02:45:51;;;;;;;8.82;7.47;;;;;;;;;;5043777;28;20056;-72
2022/08/10 02:48:23;;;;;;;8.70;6.80;;;;;;;;;;5031210;28;20040;-71
2022/08/10 02:51:11;;;;;;;7.20;6.53;;;;;;;;;;5029837;28;20146;-72
2022/08/10 02:53:43;;;;;;;8.02;6.80;;;;;;;;;;5043460;28;20117;-71
2022/08/10 02:56:09;;;;;;;;;;;;;;;;;;5049123;28;20100;-74
2022/08/10 02:58:40;;;;;;;8.88;6.93;;;;;;;;;;5042008;28;19976;-72
2022/08/10 03:01:11;;;;;;;14.70;7.90;;;;;;;;;;5038877;28;20082;-72
2022/08/10 03:03:43;;;;;;;10.35;7.88;;;;;;;;;;5045427;28;20043;-72
2022/08/10 03:06:11;;;;;;;10.38;7.68;;;;;;;;;;5041622;28;20060;-71
2022/08/10 03:08:40;;;;;;;12.18;7.53;;;;;;;;;;5046838;28;20117;-71
2022/08/10 03:11:08;;;;;;;9.23;7.85;;;;;;;;;;5048951;28;20472;-72
2022/08/10 03:13:35;;;;;;;12.40;8.65;;;;;;;;;;5028465;28;20342;-71
2022/08/10 03:16:03;;;;;;;11.48;7.85;;;;;;;;;;5048804;28;20175;-72
2022/08/10 03:18:29;;;;;;;14.80;8.35;;;;;;;;;;5038987;28;20025;-72
2022/08/10 03:20:56;;;;;;;10.88;8.10;;;;;;;;;;5039533;28;20033;-72
2022/08/10 03:23:24;;;;;;;10.63;8.32;;;;;;;;;;5048997;28;20037;-72
2022/08/10 03:25:51;;;;;;;10.30;8.05;;;;;;;;;;5038099;28;20122;-71
2022/08/10 03:28:17;;;;;;;10.52;7.78;;;;;;;;;;5049735;28;20029;-71
2022/08/10 03:30:43;;;;;;;9.20;7.97;;;;;;;;;;5047568;28;20029;-71
2022/08/10 03:33:10;;;;;;;10.70;8.63;;;;;;;;;;5045497;28;20029;-71
2022/08/10 03:35:36;;;;;;;10.85;8.38;;;;;;;;;;5026700;28;20063;-72
2022/08/10 03:38:02;;;;;;;11.75;8.88;;;;;;;;;;5034010;28;20079;-71
2022/08/10 03:40:29;;;;;;;12.07;9.18;;;;;;;;;;5043750;28;20028;-71
2022/08/10 03:42:56;;;;;;;11.18;8.85;;;;;;;;;;5046407;28;20028;-72
2022/08/10 03:45:23;;;;;;;11.88;8.80;;;;;;;;;;5039477;28;20489;-71
2022/08/10 03:47:50;;;;;;;11.43;8.02;;;;;;;;;;5026439;28;20049;-71
2022/08/10 03:50:17;;;;;;;12.30;8.10;;;;;;;;;;5037654;28;20029;-72
2022/08/10 03:52:43;;;;;;;14.18;9.15;;;;;;;;;;5042676;28;20436;-72
2022/08/10 03:55:10;;;;;;;15.48;9.50;;;;;;;;;;5043626;28;20036;-72
2022/08/10 03:57:36;;;;;;;11.20;8.63;;;;;;;;;;5048189;28;20052;-71
2022/08/10 04:00:03;;;;;;;10.85;7.13;;;;;;;;;;5047490;28;20041;-70
2022/08/10 04:02:30;;;;;;;20.52;13.07;;;;;;;;;;5029523;28;20099;-70
2022/08/10 04:04:56;;;;;;;28.67;19.17;;;;;;;;;;5044030;28;20492;-70
2022/08/10 04:07:22;;;;;;;14.57;10.68;;;;;;;;;;5043502;28;20116;-70
2022/08/10 04:09:48;;;;;;;13.77;8.85;;;;;;;;;;5037670;28;20048;-70
2022/08/10 04:12:14;;;;;;;11.75;8.75;;;;;;;;;;5053577;28;20036;-70
2022/08/10 04:14:41;;;;;;;12.65;8.50;;;;;;;;;;5042261;28;20031;-72
2022/08/10 04:17:07;;;;;;;15.25;9.75;;;;;;;;;;5031786;28;20108;-72
2022/08/10 04:19:37;;;;;;;12.13;9.40;;;;;;;;;;5033512;28;20034;-71
2022/08/10 04:22:06;;;;;;;13.38;9.30;;;;;;;;;;5047579;28;20024;-72
2022/08/10 04:24:33;;;;;;;13.90;10.35;;;;;;;;;;5050623;28;20041;-72
2022/08/10 04:27:00;;;;;;;13.02;10.00;;;;;;;;;;5035835;28;20025;-72
2022/08/10 04:29:26;;;;;;;12.23;9.35;;;;;;;;;;5051666;28;20891;-72
2022/08/10 04:31:53;;;;;;;14.98;10.05;;;;;;;;;;5047147;28;20484;-72
2022/08/10 04:34:19;;;;;;;15.00;10.40;;;;;;;;;;5043061;28;20072;-72
2022/08/10 04:36:47;;;;;;;59.65;38.25;;;;;;;;;;5044169;28;20029;-75
2022/08/10 04:39:13;;;;;;;22.65;15.88;;;;;;;;;;5045173;28;20033;-72
2022/08/10 04:41:40;;;;;;;14.70;11.95;;;;;;;;;;5028659;28;20488;-75
2022/08/10 04:44:06;;;;;;;18.65;10.68;;;;;;;;;;5055469;28;20051;-72
2022/08/10 04:46:33;;;;;;;14.07;10.63;;;;;;;;;;5045901;28;20377;-70
2022/08/10 04:49:00;;;;;;;15.05;9.85;;;;;;;;;;5050152;28;20037;-72
2022/08/10 04:51:26;;;;;;;12.02;9.52;;;;;;;;;;5023370;28;20114;-72
2022/08/10 04:53:52;;;;;;;12.48;9.85;;;;;;;;;;5047046;28;20033;-73
2022/08/10 04:56:18;;;;;;;11.80;9.13;;;;;;;;;;5045569;28;20025;-71
2022/08/10 04:58:44;;;;;;;14.27;10.00;;;;;;;;;;5049084;28;20040;-73
2022/08/10 05:01:10;;;;;;;13.57;9.93;;;;;;;;;;5046902;28;20016;-72
2022/08/10 05:03:36;;;;;;;12.45;10.40;;;;;;;;;;5036064;28;20045;-72
2022/08/10 05:06:02;;;;;;;12.40;9.43;;;;;;;;;;5042884;28;20021;-72
2022/08/10 05:08:28;;;;;;;15.05;9.70;;;;;;;;;;5049036;28;20037;-72
2022/08/10 05:10:54;;;;;;;14.82;10.07;;;;;;;;;;5037374;28;20437;-72
2022/08/10 05:13:20;;;;;;;15.25;10.20;;;;;;;;;;5048903;28;20025;-72
2022/08/10 05:15:49;;;;;;;15.80;10.35;;;;;;;;;;5034554;28;20061;-72
2022/08/10 05:18:15;;;;;;;11.82;9.75;;;;;;;;;;5043213;28;20036;-72
2022/08/10 05:20:41;;;;;;;15.18;9.63;;;;;;;;;;5048495;28;20075;-71
2022/08/10 05:23:07;;;;;;;13.63;10.52;;;;;;;;;;5047683;28;20044;-73
2022/08/10 05:25:33;;;;;;;11.88;9.45;;;;;;;;;;5047174;28;20049;-72
2022/08/10 05:27:59;;;;;;;24.73;14.63;;;;;;;;;;5033955;28;20087;-73
2022/08/10 05:30:26;;;;;;;19.10;12.30;;;;;;;;;;5050109;28;20032;-72
2022/08/10 05:32:52;;;;;;;17.08;9.93;;;;;;;;;;5035229;28;20025;-70
2022/08/10 05:35:19;;;;;;;10.48;8.60;;;;;;;;;;5034414;28;20104;-73
2022/08/10 05:37:46;;;;;;;10.93;8.57;;;;;;;;;;5027489;28;20029;-72
2022/08/10 05:40:13;;;;;;;14.60;8.13;;;;;;;;;;5039384;28;20045;-71
2022/08/10 05:42:40;;;;;;;14.40;8.52;;;;;;;;;;5028716;28;20082;-71
2022/08/10 05:45:09;;;;;;;10.98;7.93;;;;;;;;;;5031068;28;20454;-72
2022/08/10 05:47:35;;;;;;;26.40;19.17;;;;;;;;;;5042649;28;20040;-69
2022/08/10 05:50:01;;;;;;;12.73;10.63;;;;;;;;;;5047822;28;20449;-71
2022/08/10 05:52:27;;;;;;;11.43;8.73;;;;;;;;;;5049024;28;20041;-71
2022/08/10 05:54:54;;;;;;;14.38;9.07;;;;;;;;;;5031905;28;20037;-71
2022/08/10 05:57:22;;;;;;;15.10;8.45;;;;;;;;;;5045762;28;20033;-71
2022/08/10 05:59:51;;;;;;;10.48;8.15;;;;;;;;;;5048772;28;20428;-72
2022/08/10 06:02:30;;;;;;;11.88;8.23;;;;;;;;;;5026247;28;20033;-71
2022/08/10 06:04:58;;;;;;;12.05;7.78;;;;;;;;;;5039997;28;20040;-72
2022/08/10 06:07:26;;;;;;;10.05;8.77;;;;;;;;;;5043855;28;20040;-72
2022/08/10 06:09:53;;;;;;;10.85;8.27;;;;;;;;;;5051885;28;20813;-72
2022/08/10 06:12:21;;;;;;;12.52;8.13;;;;;;;;;;5029121;28;20514;-71
2022/08/10 06:15:00;;;;;;;11.00;8.27;;;;;;;;;;5056444;28;20032;-71
2022/08/10 06:17:28;;;;;;;14.18;8.05;;;;;;;;;;5044185;28;20033;-71
2022/08/10 06:19:54;;;;;;;13.75;7.93;;;;;;;;;;5043249;28;20079;-71
2022/08/10 06:22:20;;;;;;;11.80;8.57;;;;;;;;;;5051020;28;20104;-72
2022/08/10 06:24:46;;;;;;;12.23;8.85;;;;;;;;;;5047596;28;20053;-71
2022/08/10 06:27:12;;;;;;;10.10;8.02;;;;;;;;;;5047211;28;20056;-71
2022/08/10 06:29:41;;;;;;;11.05;8.38;;;;;;;;;;5036725;28;20026;-71
2022/08/10 06:32:08;;;;;;;14.32;8.60;;;;;;;;;;5047941;28;20040;-72
2022/08/10 06:34:46;;;;;;;10.43;7.03;;;;;;;;;;5047721;28;20041;-72
2022/08/10 06:37:13;;;;;;;11.20;7.38;;;;;;;;;;5042798;28;20503;-72
2022/08/10 06:39:40;;;;;;;10.70;6.72;;;;;;;;;;5047452;28;20500;-71
2022/08/10 06:42:15;;;;;;;8.85;6.70;;;;;;;;;;5060800;28;20024;-71
2022/08/10 06:44:49;;;;;;;7.80;5.90;;;;;;;;;;5059445;28;20137;-71
2022/08/10 06:47:17;;;;;;;11.43;7.30;;;;;;;;;;5048132;28;20552;-71
2022/08/10 06:49:43;;;;;;;9.10;6.45;;;;;;;;;;5050976;28;20124;-71
2022/08/10 06:52:10;;;;;;;7.15;5.63;;;;;;;;;;5048738;28;20041;-71
2022/08/10 06:54:37;;;;;;;7.53;5.15;;;;;;;;;;5042604;28;20033;-71
2022/08/10 06:57:03;;;;;;;11.93;5.90;;;;;;;;;;5049952;28;20028;-71
2022/08/10 06:59:29;;;;;;;9.20;6.60;;;;;;;;;;5048807;28;20037;-72
2022/08/10 07:02:11;;;;;;;11.93;5.63;;;;;;;;;;5050308;28;20029;-72
2022/08/10 07:04:43;;;;;;;6.50;5.55;;;;;;;;;;5047960;28;20072;-72
2022/08/10 07:07:14;;;;;;;10.35;5.78;;;;;;;;;;5018371;28;20555;-72
2022/08/10 07:09:40;;;;;;;7.38;5.93;;;;;;;;;;5041738;28;20095;-72
2022/08/10 07:12:07;;;;;;;12.48;5.15;;;;;;;;;;5031481;28;20075;-71
2022/08/10 07:14:36;;;;;;;8.85;5.82;;;;;;;;;;5037502;28;20502;-71
2022/08/10 07:17:03;;;;;;;6.50;5.40;;;;;;;;;;5043373;28;20048;-71
2022/08/10 07:19:31;;;;;;;10.27;4.80;;;;;;;;;;5022149;28;20037;-71
2022/08/10 07:21:57;;;;;;;8.73;4.93;;;;;;;;;;5050416;28;20025;-72
2022/08/10 07:24:24;;;;;;;5.53;4.93;;;;;;;;;;5037592;28;20029;-71
2022/08/10 07:26:52;;;;;;;8.85;5.05;;;;;;;;;;5039841;28;20095;-71
2022/08/10 07:29:19;;;;;;;6.35;4.55;;;;;;;;;;5047724;28;20356;-72
2022/08/10 07:31:48;;;;;;;7.60;5.10;;;;;;;;;;5056955;28;20024;-72
2022/08/10 07:34:15;;;;;;;9.15;4.35;;;;;;;;;;5053666;28;20040;-72
2022/08/10 07:36:42;;;;;;;4.68;3.97;;;;;;;;;;5046801;28;20033;-72
2022/08/10 07:39:10;;;;;;;6.80;3.80;;;;;;;;;;5048421;28;20029;-71
2022/08/10 07:41:37;;;;;;;10.02;3.55;;;;;;;;;;5050132;28;20032;-71
2022/08/10 07:44:04;;;;;;;6.93;3.70;;;;;;;;;;5054902;28;20033;-72
2022/08/10 07:46:33;;;;;;;7.00;3.28;;;;;;;;;;5045341;28;20358;-71
2022/08/10 07:49:10;;;;;;;7.05;3.45;;;;;;;;;;5051080;28;20025;-72
2022/08/10 07:51:37;;;;;;;8.00;3.67;;;;;;;;;;5052286;28;20029;-71
2022/08/10 07:54:04;;;;;;;7.32;3.70;;;;;;;;;;5035923;28;20041;-78
2022/08/10 07:56:32;;;;;;;11.02;4.53;;;;;;;;;;5041768;28;20342;-73
2022/08/10 07:59:04;;;;;;;9.68;4.65;;;;;;;;;;5042074;28;20102;-73
2022/08/10 08:01:32;;;;;;;10.43;2.70;;;;;;;;;;5040634;28;20071;-72
2022/08/10 08:03:59;;;;;;;9.50;2.58;;;;;;;;;;5039552;28;20634;-73
2022/08/10 08:06:26;;;;;;;6.25;2.42;;;;;;;;;;5046075;28;20096;-75
2022/08/10 08:08:53;;;;;;;5.63;2.50;;;;;;;;;;5051705;28;20033;-70
2022/08/10 08:11:20;;;;;;;5.57;2.58;;;;;;;;;;5021276;28;20026;-72
2022/08/10 08:13:46;;;;;;;8.48;2.22;;;;;;;;;;5046315;28;20056;-71
2022/08/10 08:16:13;;;;;;;3.28;1.60;;;;;;;;;;5048900;28;20032;-71
2022/08/10 08:18:40;;;;;;;3.35;1.80;;;;;;;;;;5044923;28;20505;-71
2022/08/10 08:21:06;;;;;;;4.50;1.77;;;;;;;;;;5043244;28;20037;-71
2022/08/10 08:23:33;;;;;;;3.65;1.58;;;;;;;;;;5044671;28;20425;-70
2022/08/10 08:25:59;;;;;;;5.95;1.88;;;;;;;;;;5014121;28;20512;-72
2022/08/10 08:28:26;;;;;;;9.57;6.38;;;;;;;;;;5041719;28;20124;-69
2022/08/10 08:30:53;;;;;;;5.68;3.58;;;;;;;;;;5021174;28;20021;-72
2022/08/10 08:33:19;;;;;;;6.95;1.88;;;;;;;;;;5028396;28;20496;-71
2022/08/10 08:35:47;;;;;;;6.38;1.77;;;;;;;;;;5017666;28;20037;-71
2022/08/10 08:38:14;;;;;;;4.10;1.67;;;;;;;;;;5039908;28;20020;-71
2022/08/10 08:40:42;;;;;;;6.90;2.03;;;;;;;;;;5050007;28;20061;-71
2022/08/10 08:43:08;;;;;;;4.05;1.42;;;;;;;;;;5041175;28;20440;-70
2022/08/10 08:45:46;;;;;;;6.45;2.22;;;;;;;;;;5045521;28;20033;-69
2022/08/10 08:48:27;;;;;;;3.15;1.40;;;;;;;;;;5036752;28;20025;-74
2022/08/10 08:50:59;;;;;;;11.60;7.90;;;;;;;;;;5048460;28;20040;-74
2022/08/10 08:53:38;;;;;;;2.97;1.50;;;;;;;;;;5044626;28;20111;-72
2022/08/10 08:56:09;;;;;;;7.43;1.95;;;;;;;;;;5041716;28;20043;-72
2022/08/10 08:58:43;;;;;;;4.55;1.85;;;;;;;;;;5049521;28;20102;-72
2022/08/10 09:01:28;;;;;;;2.90;1.00;;;;;;;;;;5049788;28;20129;-72
2022/08/10 09:04:07;;;;;;;6.20;1.90;;;;;;;;;;5047991;28;20037;-72
2022/08/10 09:06:51;;;;;;;3.92;1.23;;;;;;;;;;5033136;28;20025;-72
2022/08/10 09:09:26;;;;;;;6.78;1.63;;;;;;;;;;5047750;28;20032;-71
2022/08/10 09:12:11;;;;;;;4.30;1.95;;;;;;;;;;5037651;28;20025;-72
2022/08/10 09:14:49;;;;;;;4.55;1.70;;;;;;;;;;5044828;28;20110;-72
2022/08/10 09:17:17;;;;;;;4.30;1.50;;;;;;;;;;5051329;28;20033;-72
2022/08/10 09:20:07;;;;;;;8.68;2.55;;;;;;;;;;5049208;28;20493;-72
2022/08/10 09:22:36;;;;;;;5.38;1.58;;;;;;;;;;5020781;28;20032;-71
2022/08/10 09:25:19;;;;;;;3.45;1.30;;;;;;;;;;5054965;28;20377;-72
2022/08/10 09:27:52;;;;;;;4.30;1.38;;;;;;;;;;5048975;28;20110;-71
2022/08/10 09:30:21;;;;;;;4.72;1.30;;;;;;;;;;5042798;28;20029;-71
2022/08/10 09:32:55;;;;;;;2.03;1.02;;;;;;;;;;5030633;28;20021;-71
2022/08/10 09:35:22;;;;;;;3.33;1.50;;;;;;;;;;5049304;28;20472;-72
2022/08/10 09:37:48;;;;;;;3.85;1.50;;;;;;;;;;5043412;28;20477;-72
2022/08/10 09:40:34;;;;;;;3.80;1.30;;;;;;;;;;5045052;28;20024;-72
2022/08/10 09:43:00;;;;;;;2.08;1.38;;;;;;;;;;5034114;28;20116;-72
2022/08/10 09:45:44;;;;;;;4.88;1.10;;;;;;;;;;5041057;28;20036;-71
2022/08/10 09:48:11;;;;;;;4.38;1.40;;;;;;;;;;5045002;28;20036;-71
2022/08/10 09:50:56;;;;;;;3.28;0.90;;;;;;;;;;5052094;28;20401;-71
2022/08/10 09:53:54;;;;;;;6.43;1.17;;;;;;;;;;5038169;28;20036;-72
2022/08/10 09:56:39;;;;;;;2.33;1.05;;;;;;;;;;5002821;28;20041;-71
2022/08/10 09:59:07;;;;;;;3.35;0.90;;;;;;;;;;5045252;28;20048;-72
2022/08/10 10:01:40;;;;;;;3.75;1.05;;;;;;;;;;5044852;28;20016;-72
2022/08/10 10:04:06;;;;;;;2.83;1.00;;;;;;;;;;5026163;28;20026;-72
2022/08/10 10:06:41;;;;;;;5.53;1.13;;;;;;;;;;5031832;28;20028;-72
2022/08/10 10:09:28;;;;;;;5.03;1.17;;;;;;;;;;5044133;28;20048;-73
2022/08/10 10:11:57;;;;;;;5.63;0.80;;;;;;;;;;5046169;28;20044;-71
2022/08/10 10:17:42;;;;;;;2.90;1.05;;;;;;;;;;5042711;28;20040;-73
2022/08/10 10:20:20;;;;;;;2.58;0.93;;;;;;;;;;5027066;28;20056;-74
2022/08/10 10:22:50;;;;;;;5.57;0.80;;;;;;;;;;5044738;28;20028;-72
2022/08/10 10:25:48;;;;;;;1.70;0.75;;;;;;;;;;5048132;28;20621;-72
2022/08/10 10:28:33;;;;;;;3.08;0.65;;;;;;;;;;4996474;28;20077;-71
2022/08/10 10:31:13;;;;;;;2.42;1.05;;;;;;;;;;5036550;28;20555;-71
2022/08/10 10:33:42;;;;;;;3.23;1.27;;;;;;;;;;5032372;28;20095;-72
2022/08/10 10:36:09;;;;;;;3.50;0.82;;;;;;;;;;5049094;28;20370;-72
2022/08/10 10:38:39;;;;;;;7.18;1.17;;;;;;;;;;5029903;28;20043;-70
2022/08/10 10:41:12;;;;;;;1.65;0.85;;;;;;;;;;5032954;28;20099;-69
2022/08/10 10:43:50;;;;;;;2.13;1.10;;;;;;;;;;5046589;28;20037;-72
2022/08/10 10:46:34;;;;;;;4.45;1.00;;;;;;;;;;5048140;28;20017;-72
2022/08/10 10:49:05;;;;;;;3.25;0.88;;;;;;;;;;5049569;28;20025;-73
2022/08/10 10:51:47;;;;;;;6.93;1.02;;;;;;;;;;5031971;28;20028;-72
2022/08/10 10:54:43;;;;;;;1.90;0.80;;;;;;;;;;5038369;28;20554;-72
2022/08/10 10:57:18;;;;;;;1.42;0.50;;;;;;;;;;4961127;28;20546;-72
2022/08/10 11:00:06;;;;;;;2.15;0.50;;;;;;;;;;5029742;28;20036;-73
2022/08/10 11:02:50;;;;;;;1.80;0.80;;;;;;;;;;5041791;28;20140;-74
2022/08/10 11:05:31;;;;;;;2.42;0.60;;;;;;;;;;5036854;28;20570;-71
2022/08/10 11:07:59;;;;;;;1.10;0.55;;;;;;;;;;5030677;28;20448;-72
2022/08/10 11:10:30;;;;;;;1.90;0.68;;;;;;;;;;5040657;28;20033;-72
2022/08/10 11:13:04;;;;;;;0.77;0.60;;;;;;;;;;5047203;28;20025;-72
2022/08/10 11:15:32;;;;;;;5.25;0.70;;;;;;;;;;5044044;28;20028;-72
2022/08/10 11:18:02;;;;;;;6.47;0.60;;;;;;;;;;5050521;28;20078;-72
2022/08/10 11:20:38;;;;;;;2.42;0.70;;;;;;;;;;5048420;28;20179;-72
2022/08/10 11:23:04;;;;;;;6.45;1.05;;;;;;;;;;5047843;28;20346;-72
2022/08/10 11:25:32;;;;;;;4.00;0.70;;;;;;;;;;5048683;28;20925;-72
2022/08/10 11:28:07;;;;;;;3.35;0.70;;;;;;;;;;5049799;28;20028;-75
2022/08/10 11:30:46;;;;;;;1.55;0.70;;;;;;;;;;5026858;28;20032;-73
2022/08/10 11:33:15;;;;;;;2.20;1.10;;;;;;;;;;5032474;28;20025;-72
2022/08/10 11:35:59;;;;;;;2.55;0.77;;;;;;;;;;5049950;28;20465;-72
2022/08/10 11:38:29;;;;;;;4.22;0.90;;;;;;;;;;5043635;28;20477;-72
2022/08/10 11:41:00;;;;;;;6.35;1.00;;;;;;;;;;5044425;28;20029;-75
2022/08/10 11:43:28;;;;;;;2.13;0.60;;;;;;;;;;5041156;28;20120;-72
2022/08/10 11:45:59;;;;;;;4.05;0.73;;;;;;;;;;5028521;28;20104;-72
2022/08/10 11:48:25;;;;;;;;;;;;;;;;;;5042980;28;20029;-72
2022/08/10 11:50:55;;;;;;;1.40;0.60;;;;;;;;;;5044425;28;19916;-73
2022/08/10 11:53:30;;;;;;;1.63;0.65;;;;;;;;;;5039469;28;20041;-72
2022/08/10 11:55:57;;;;;;;4.22;0.70;;;;;;;;;;5046634;28;20029;-72
2022/08/10 12:01:10;;;;;;;4.72;0.73;;;;;;;;;;5047513;28;20036;-72
2022/08/10 12:03:38;;;;;;;2.72;1.00;;;;;;;;;;5048338;28;20065;-72
2022/08/10 12:06:07;;;;;;;5.47;0.82;;;;;;;;;;5048119;28;20103;-72
2022/08/10 12:08:33;;;;;;;1.60;0.60;;;;;;;;;;5041956;28;20066;-72
2022/08/10 12:10:59;;;;;;;1.02;0.70;;;;;;;;;;5046899;28;20028;-73
2022/08/10 12:13:27;;;;;;;1.52;0.70;;;;;;;;;;5050331;28;20071;-72
2022/08/10 12:16:00;;;;;;;2.55;0.60;;;;;;;;;;5046212;28;20049;-72
2022/08/10 12:18:45;;;;;;;2.58;1.00;;;;;;;;;;5048571;28;20090;-72
2022/08/10 12:21:34;;;;;;;1.98;0.70;;;;;;;;;;5052775;28;20500;-72
2022/08/10 12:24:09;;;;;;;3.20;0.77;;;;;;;;;;5032737;28;21002;-72
2022/08/10 12:26:44;;;;;;;2.47;1.33;;;;;;;;;;5039372;28;20097;-72
2022/08/10 12:29:30;;;;;;;3.45;1.65;;;;;;;;;;5053797;28;20021;-72
2022/08/10 12:32:04;;;;;;;2.40;0.90;;;;;;;;;;5043150;28;20083;-72
2022/08/10 12:34:33;;;;;;;1.67;0.90;;;;;;;;;;5060038;28;20044;-72
2022/08/10 12:37:11;;;;;;;1.50;0.70;;;;;;;;;;5052964;28;20032;-72
2022/08/10 12:39:46;;;;;;;1.95;0.70;;;;;;;;;;5041401;28;20102;-72
2022/08/10 12:42:17;;;;;;;2.42;0.55;;;;;;;;;;5057465;28;20102;-72
2022/08/10 12:44:49;;;;;;;2.45;0.60;;;;;;;;;;5054203;28;20124;-72
2022/08/10 12:47:18;;;;;;;2.05;0.57;;;;;;;;;;5047719;28;20025;-72
2022/08/10 12:50:05;;;;;;;1.73;0.60;;;;;;;;;;5053307;28;20033;-71
2022/08/10 12:52:39;;;;;;;3.58;0.60;;;;;;;;;;5055470;28;20522;-72
2022/08/10 12:55:06;;;;;;;2.70;0.90;;;;;;;;;;5024264;28;20068;-71
2022/08/10 12:57:35;;;;;;;5.22;0.98;;;;;;;;;;5046578;28;20389;-72
2022/08/10 13:00:01;;;;;;;2.70;0.55;;;;;;;;;;5048597;28;20079;-72
2022/08/10 13:02:29;;;;;;;8.40;1.15;;;;;;;;;;5053320;28;20455;-72
2022/08/10 13:04:56;;;;;;;8.27;0.77;;;;;;;;;;5051285;28;20033;-72
2022/08/10 13:07:24;;;;;;;3.08;0.47;;;;;;;;;;5040894;28;20361;-78
2022/08/10 13:09:51;;;;;;;1.73;0.50;;;;;;;;;;5047219;28;20025;-78
2022/08/10 13:12:17;;;;;;;4.18;0.60;;;;;;;;;;5049316;28;20095;-77
2022/08/10 13:14:56;;;;;;;2.28;0.73;;;;;;;;;;5045699;28;20041;-81
2022/08/10 13:17:27;;;;;;;2.92;0.40;;;;;;;;;;5049950;28;20107;-75
2022/08/10 13:19:54;;;;;;;;;;;;;;;;;;5025477;28;20031;-80
2022/08/10 13:22:21;;;;;;;1.73;0.60;;;;;;;;;;5045159;28;19916;-72
2022/08/10 13:24:50;;;;;;;4.30;0.55;;;;;;;;;;5036486;28;20054;-71
2022/08/10 13:27:17;;;;;;;4.07;0.57;;;;;;;;;;5020918;28;20059;-72
2022/08/10 13:29:49;;;;;;;0.82;0.50;;;;;;;;;;5047879;28;20083;-72
2022/08/10 13:32:19;;;;;;;2.35;0.50;;;;;;;;;;5044075;28;20598;-72
2022/08/10 13:34:45;;;;;;;1.80;0.60;;;;;;;;;;5050293;28;20028;-71
2022/08/10 13:37:14;;;;;;;3.28;0.50;;;;;;;;;;5045655;28;20025;-72
2022/08/10 13:39:43;;;;;;;1.27;0.70;;;;;;;;;;5044124;28;20034;-72
2022/08/10 13:42:12;;;;;;;1.92;0.60;;;;;;;;;;5038149;28;20017;-72
2022/08/10 13:44:41;;;;;;;0.75;0.45;;;;;;;;;;5040333;28;20043;-72
2022/08/10 13:47:12;;;;;;;2.75;0.55;;;;;;;;;;5046578;28;20032;-72
2022/08/10 13:49:53;;;;;;;4.47;1.37;;;;;;;;;;5033131;28;20110;-71
2022/08/10 13:52:25;;;;;;;1.80;0.57;;;;;;;;;;5049050;28;20503;-71
2022/08/10 13:54:52;;;;;;;1.27;0.68;;;;;;;;;;5017750;28;20059;-71
2022/08/10 13:57:31;;;;;;;2.22;0.68;;;;;;;;;;5018584;28;20045;-72
2022/08/10 13:59:58;;;;;;;1.30;0.80;;;;;;;;;;5029337;28;20028;-71
2022/08/10 14:02:35;;;;;;;7.63;0.68;;;;;;;;;;5034516;28;20396;-71
2022/08/10 14:05:02;;;;;;;3.30;0.70;;;;;;;;;;5037120;28;20038;-71
2022/08/10 14:07:28;;;;;;;2.85;0.63;;;;;;;;;;5031777;28;20377;-71
2022/08/10 14:09:58;;;;;;;2.25;0.60;;;;;;;;;;5036676;28;20044;-71
2022/08/10 14:12:26;;;;;;;3.25;0.60;;;;;;;;;;5051456;28;20060;-71
2022/08/10 14:14:53;;;;;;;0.70;0.50;;;;;;;;;;5043968;28;20028;-73
2022/08/10 14:17:21;;;;;;;1.95;0.63;;;;;;;;;;5022834;28;20120;-72
2022/08/10 14:19:51;;;;;;;1.52;0.50;;;;;;;;;;5035189;28;20021;-72
2022/08/10 14:22:18;;;;;;;1.55;0.55;;;;;;;;;;5048584;28;20072;-71
2022/08/10 14:24:44;;;;;;;0.68;0.60;;;;;;;;;;5032500;28;20033;-71
2022/08/10 14:27:13;;;;;;;3.90;0.40;;;;;;;;;;5024834;28;20044;-71
2022/08/10 14:29:53;;;;;;;2.28;0.80;;;;;;;;;;5032223;28;20242;-71
2022/08/10 14:32:23;;;;;;;0.93;0.50;;;;;;;;;;5039786;28;20579;-71
2022/08/10 14:34:49;;;;;;;2.05;0.60;;;;;;;;;;5035433;28;20076;-71
2022/08/10 14:37:17;;;;;;;2.63;0.60;;;;;;;;;;5033779;28;20564;-71
2022/08/10 14:39:43;;;;;;;5.63;0.82;;;;;;;;;;5020394;28;20029;-69
2022/08/10 14:42:12;;;;;;;3.67;1.02;;;;;;;;;;5043659;28;20504;-71
2022/08/10 14:44:43;;;;;;;2.33;0.80;;;;;;;;;;5036946;28;20112;-70
2022/08/10 14:47:10;;;;;;;2.50;0.60;;;;;;;;;;5043811;28;20033;-70
2022/08/10 14:49:37;;;;;;;1.73;0.68;;;;;;;;;;5043554;28;20040;-70
2022/08/10 14:52:04;;;;;;;1.73;0.70;;;;;;;;;;5023620;28;20028;-70
2022/08/10 14:54:31;;;;;;;0.98;0.52;;;;;;;;;;5020271;28;20539;-70
2022/08/10 14:57:03;;;;;;;1.20;0.60;;;;;;;;;;5045254;28;20031;-70
2022/08/10 14:59:30;;;;;;;1.42;0.55;;;;;;;;;;5043895;28;22025;-70
2022/08/10 15:01:58;;;;;;;2.08;0.88;;;;;;;;;;5048096;28;20377;-70